sensor_id;sensor_type;location;lat;lon;timestamp;P1;durP1;ratioP1;P2;durP2;ratioP2
15216;SDS011;7711;46.634;14.318;2023-08-17T00:00:02;10.40;;;9.32;;
15216;SDS011;7711;46.634;14.318;2023-08-17T00:02:33;10.35;;;9.25;;
15216;SDS011;7711;46.634;14.318;2023-08-17T00:05:00;11.13;;;10.00;;
15216;SDS011;7711;46.634;14.318;2023-08-17T00:07:27;11.52;;;9.98;;
15216;SDS011;7711;46.634;14.318;2023-08-17T00:09:55;10.48;;;9.45;;
15216;SDS011;7711;46.634;14.318;2023-08-17T00:12:22;11.93;;;9.85;;
15216;SDS011;7711;46.634;14.318;2023-08-17T00:14:50;10.80;;;9.73;;
15216;SDS011;7711;46.634;14.318;2023-08-17T00:17:17;10.52;;;9.43;;
15216;SDS011;7711;46.634;14.318;2023-08-17T00:19:44;15.02;;;10.20;;
15216;SDS011;7711;46.634;14.318;2023-08-17T00:22:12;10.43;;;9.20;;
15216;SDS011;7711;46.634;14.318;2023-08-17T00:24:39;12.20;;;10.05;;
15216;SDS011;7711;46.634;14.318;2023-08-17T00:27:08;10.60;;;9.50;;
15216;SDS011;7711;46.634;14.318;2023-08-17T00:29:35;10.73;;;9.63;;
15216;SDS011;7711;46.634;14.318;2023-08-17T00:32:03;14.38;;;9.30;;
15216;SDS011;7711;46.634;14.318;2023-08-17T00:34:30;10.95;;;9.82;;
15216;SDS011;7711;46.634;14.318;2023-08-17T00:36:57;12.02;;;10.20;;
15216;SDS011;7711;46.634;14.318;2023-08-17T00:39:24;10.88;;;9.88;;
15216;SDS011;7711;46.634;14.318;2023-08-17T00:41:51;10.18;;;9.18;;
15216;SDS011;7711;46.634;14.318;2023-08-17T00:44:20;10.80;;;9.80;;
15216;SDS011;7711;46.634;14.318;2023-08-17T00:46:47;11.25;;;10.07;;
15216;SDS011;7711;46.634;14.318;2023-08-17T00:49:14;11.90;;;9.75;;
15216;SDS011;7711;46.634;14.318;2023-08-17T00:51:42;10.20;;;9.18;;
15216;SDS011;7711;46.634;14.318;2023-08-17T00:54:09;13.93;;;10.20;;
15216;SDS011;7711;46.634;14.318;2023-08-17T00:56:37;11.65;;;10.35;;
15216;SDS011;7711;46.634;14.318;2023-08-17T00:59:04;11.27;;;10.18;;
15216;SDS011;7711;46.634;14.318;2023-08-17T01:01:33;11.55;;;9.30;;
15216;SDS011;7711;46.634;14.318;2023-08-17T01:04:00;11.77;;;10.18;;
15216;SDS011;7711;46.634;14.318;2023-08-17T01:06:27;11.85;;;10.50;;
15216;SDS011;7711;46.634;14.318;2023-08-17T01:08:54;11.68;;;10.20;;
15216;SDS011;7711;46.634;14.318;2023-08-17T01:11:24;11.38;;;10.18;;
15216;SDS011;7711;46.634;14.318;2023-08-17T01:13:56;12.00;;;10.90;;
15216;SDS011;7711;46.634;14.318;2023-08-17T01:16:29;11.70;;;10.60;;
15216;SDS011;7711;46.634;14.318;2023-08-17T01:19:00;12.38;;;11.07;;
15216;SDS011;7711;46.634;14.318;2023-08-17T01:21:35;12.10;;;10.88;;
15216;SDS011;7711;46.634;14.318;2023-08-17T01:24:08;10.75;;;9.65;;
15216;SDS011;7711;46.634;14.318;2023-08-17T01:26:38;11.40;;;10.18;;
15216;SDS011;7711;46.634;14.318;2023-08-17T01:29:05;11.82;;;10.73;;
15216;SDS011;7711;46.634;14.318;2023-08-17T01:31:34;11.88;;;10.77;;
15216;SDS011;7711;46.634;14.318;2023-08-17T01:34:12;11.55;;;10.45;;
15216;SDS011;7711;46.634;14.318;2023-08-17T01:36:45;11.98;;;10.77;;
15216;SDS011;7711;46.634;14.318;2023-08-17T01:39:19;11.75;;;10.65;;
15216;SDS011;7711;46.634;14.318;2023-08-17T01:41:48;11.82;;;10.63;;
15216;SDS011;7711;46.634;14.318;2023-08-17T01:44:17;11.07;;;10.07;;
15216;SDS011;7711;46.634;14.318;2023-08-17T01:46:44;11.70;;;10.27;;
15216;SDS011;7711;46.634;14.318;2023-08-17T01:49:11;14.38;;;10.60;;
15216;SDS011;7711;46.634;14.318;2023-08-17T01:51:38;11.63;;;10.50;;
15216;SDS011;7711;46.634;14.318;2023-08-17T01:54:05;12.55;;;10.68;;
15216;SDS011;7711;46.634;14.318;2023-08-17T01:56:34;13.63;;;10.80;;
15216;SDS011;7711;46.634;14.318;2023-08-17T01:59:01;13.13;;;11.00;;
15216;SDS011;7711;46.634;14.318;2023-08-17T02:01:28;11.57;;;10.38;;
15216;SDS011;7711;46.634;14.318;2023-08-17T02:03:55;13.52;;;11.43;;
15216;SDS011;7711;46.634;14.318;2023-08-17T02:06:22;12.15;;;10.85;;
15216;SDS011;7711;46.634;14.318;2023-08-17T02:08:49;11.98;;;10.63;;
15216;SDS011;7711;46.634;14.318;2023-08-17T02:11:16;11.40;;;10.30;;
15216;SDS011;7711;46.634;14.318;2023-08-17T02:13:45;12.90;;;11.52;;
15216;SDS011;7711;46.634;14.318;2023-08-17T02:16:12;12.85;;;11.18;;
15216;SDS011;7711;46.634;14.318;2023-08-17T02:18:39;12.57;;;11.35;;
15216;SDS011;7711;46.634;14.318;2023-08-17T02:21:06;11.95;;;10.73;;
15216;SDS011;7711;46.634;14.318;2023-08-17T02:23:34;12.73;;;11.43;;
15216;SDS011;7711;46.634;14.318;2023-08-17T02:26:01;11.52;;;10.40;;
15216;SDS011;7711;46.634;14.318;2023-08-17T02:28:28;12.20;;;11.02;;
15216;SDS011;7711;46.634;14.318;2023-08-17T02:30:56;12.60;;;10.48;;
15216;SDS011;7711;46.634;14.318;2023-08-17T02:33:24;12.27;;;11.07;;
15216;SDS011;7711;46.634;14.318;2023-08-17T02:35:51;12.13;;;11.00;;
15216;SDS011;7711;46.634;14.318;2023-08-17T02:38:19;14.48;;;10.38;;
15216;SDS011;7711;46.634;14.318;2023-08-17T02:40:46;12.75;;;10.48;;
15216;SDS011;7711;46.634;14.318;2023-08-17T02:43:14;12.13;;;10.93;;
15216;SDS011;7711;46.634;14.318;2023-08-17T02:45:41;13.80;;;11.35;;
15216;SDS011;7711;46.634;14.318;2023-08-17T02:48:10;13.70;;;12.27;;
15216;SDS011;7711;46.634;14.318;2023-08-17T02:50:37;13.63;;;11.02;;
15216;SDS011;7711;46.634;14.318;2023-08-17T02:53:04;12.48;;;11.38;;
15216;SDS011;7711;46.634;14.318;2023-08-17T02:55:31;13.35;;;11.95;;
15216;SDS011;7711;46.634;14.318;2023-08-17T02:57:58;12.82;;;11.52;;
15216;SDS011;7711;46.634;14.318;2023-08-17T03:00:25;13.27;;;11.32;;
15216;SDS011;7711;46.634;14.318;2023-08-17T03:02:52;13.60;;;12.13;;
15216;SDS011;7711;46.634;14.318;2023-08-17T03:05:20;14.57;;;12.05;;
15216;SDS011;7711;46.634;14.318;2023-08-17T03:07:47;13.60;;;11.48;;
15216;SDS011;7711;46.634;14.318;2023-08-17T03:10:14;13.82;;;12.23;;
15216;SDS011;7711;46.634;14.318;2023-08-17T03:12:41;13.15;;;11.77;;
15216;SDS011;7711;46.634;14.318;2023-08-17T03:15:09;14.15;;;11.63;;
15216;SDS011;7711;46.634;14.318;2023-08-17T03:17:36;13.07;;;11.77;;
15216;SDS011;7711;46.634;14.318;2023-08-17T03:20:03;15.27;;;11.57;;
15216;SDS011;7711;46.634;14.318;2023-08-17T03:22:33;15.73;;;12.73;;
15216;SDS011;7711;46.634;14.318;2023-08-17T03:25:00;14.75;;;12.52;;
15216;SDS011;7711;46.634;14.318;2023-08-17T03:27:27;15.18;;;12.60;;
15216;SDS011;7711;46.634;14.318;2023-08-17T03:29:55;13.65;;;11.98;;
15216;SDS011;7711;46.634;14.318;2023-08-17T03:32:21;12.93;;;11.63;;
15216;SDS011;7711;46.634;14.318;2023-08-17T03:34:48;12.90;;;11.60;;
15216;SDS011;7711;46.634;14.318;2023-08-17T03:37:15;12.75;;;11.38;;
15216;SDS011;7711;46.634;14.318;2023-08-17T03:39:44;14.07;;;12.18;;
15216;SDS011;7711;46.634;14.318;2023-08-17T03:42:11;12.85;;;11.55;;
15216;SDS011;7711;46.634;14.318;2023-08-17T03:44:38;16.23;;;11.98;;
15216;SDS011;7711;46.634;14.318;2023-08-17T03:47:05;13.07;;;11.23;;
15216;SDS011;7711;46.634;14.318;2023-08-17T03:49:32;17.73;;;12.32;;
15216;SDS011;7711;46.634;14.318;2023-08-17T03:51:59;17.15;;;11.90;;
15216;SDS011;7711;46.634;14.318;2023-08-17T03:54:26;12.85;;;11.48;;
15216;SDS011;7711;46.634;14.318;2023-08-17T03:56:54;13.25;;;11.85;;
15216;SDS011;7711;46.634;14.318;2023-08-17T03:59:21;13.13;;;11.25;;
15216;SDS011;7711;46.634;14.318;2023-08-17T04:01:50;12.73;;;11.43;;
15216;SDS011;7711;46.634;14.318;2023-08-17T04:04:17;11.57;;;10.38;;
15216;SDS011;7711;46.634;14.318;2023-08-17T04:06:44;12.55;;;10.82;;
15216;SDS011;7711;46.634;14.318;2023-08-17T04:09:11;12.70;;;11.18;;
15216;SDS011;7711;46.634;14.318;2023-08-17T04:11:38;12.25;;;10.98;;
15216;SDS011;7711;46.634;14.318;2023-08-17T04:14:06;13.77;;;10.88;;
15216;SDS011;7711;46.634;14.318;2023-08-17T04:16:34;14.75;;;11.40;;
15216;SDS011;7711;46.634;14.318;2023-08-17T04:19:01;13.07;;;11.63;;
15216;SDS011;7711;46.634;14.318;2023-08-17T04:21:28;12.73;;;11.40;;
15216;SDS011;7711;46.634;14.318;2023-08-17T04:23:55;12.98;;;11.55;;
15216;SDS011;7711;46.634;14.318;2023-08-17T04:26:22;14.20;;;11.75;;
15216;SDS011;7711;46.634;14.318;2023-08-17T04:28:49;14.38;;;11.35;;
15216;SDS011;7711;46.634;14.318;2023-08-17T04:31:17;12.80;;;11.52;;
15216;SDS011;7711;46.634;14.318;2023-08-17T04:33:44;13.68;;;12.20;;
15216;SDS011;7711;46.634;14.318;2023-08-17T04:36:11;12.13;;;10.90;;
15216;SDS011;7711;46.634;14.318;2023-08-17T04:38:38;12.38;;;11.10;;
15216;SDS011;7711;46.634;14.318;2023-08-17T04:41:05;13.73;;;11.43;;
15216;SDS011;7711;46.634;14.318;2023-08-17T04:43:32;12.70;;;10.73;;
15216;SDS011;7711;46.634;14.318;2023-08-17T04:46:00;12.18;;;10.95;;
15216;SDS011;7711;46.634;14.318;2023-08-17T04:48:28;12.23;;;10.93;;
15216;SDS011;7711;46.634;14.318;2023-08-17T04:50:55;15.68;;;10.35;;
15216;SDS011;7711;46.634;14.318;2023-08-17T04:53:22;14.82;;;10.52;;
15216;SDS011;7711;46.634;14.318;2023-08-17T04:55:49;12.38;;;10.38;;
15216;SDS011;7711;46.634;14.318;2023-08-17T04:58:16;14.07;;;10.25;;
15216;SDS011;7711;46.634;14.318;2023-08-17T05:00:43;17.77;;;10.43;;
15216;SDS011;7711;46.634;14.318;2023-08-17T05:03:10;11.07;;;9.90;;
15216;SDS011;7711;46.634;14.318;2023-08-17T05:05:38;12.30;;;10.45;;
15216;SDS011;7711;46.634;14.318;2023-08-17T05:08:05;13.18;;;11.05;;
15216;SDS011;7711;46.634;14.318;2023-08-17T05:10:32;11.75;;;10.55;;
15216;SDS011;7711;46.634;14.318;2023-08-17T05:12:59;18.63;;;11.10;;
15216;SDS011;7711;46.634;14.318;2023-08-17T05:15:26;15.38;;;10.82;;
15216;SDS011;7711;46.634;14.318;2023-08-17T05:17:53;19.85;;;11.05;;
15216;SDS011;7711;46.634;14.318;2023-08-17T05:20:20;12.60;;;10.18;;
15216;SDS011;7711;46.634;14.318;2023-08-17T05:22:48;17.35;;;10.70;;
15216;SDS011;7711;46.634;14.318;2023-08-17T05:25:15;11.20;;;10.10;;
15216;SDS011;7711;46.634;14.318;2023-08-17T05:27:42;11.40;;;9.55;;
15216;SDS011;7711;46.634;14.318;2023-08-17T05:30:10;14.52;;;11.07;;
15216;SDS011;7711;46.634;14.318;2023-08-17T05:32:37;11.15;;;9.95;;
15216;SDS011;7711;46.634;14.318;2023-08-17T05:35:07;11.88;;;9.90;;
15216;SDS011;7711;46.634;14.318;2023-08-17T05:37:34;13.07;;;10.27;;
15216;SDS011;7711;46.634;14.318;2023-08-17T05:40:03;11.30;;;10.20;;
15216;SDS011;7711;46.634;14.318;2023-08-17T05:42:30;12.23;;;10.55;;
15216;SDS011;7711;46.634;14.318;2023-08-17T05:44:57;13.73;;;10.32;;
15216;SDS011;7711;46.634;14.318;2023-08-17T05:47:24;12.25;;;10.55;;
15216;SDS011;7711;46.634;14.318;2023-08-17T05:49:51;13.32;;;10.35;;
15216;SDS011;7711;46.634;14.318;2023-08-17T05:52:18;12.82;;;9.68;;
15216;SDS011;7711;46.634;14.318;2023-08-17T05:54:45;12.50;;;10.93;;
15216;SDS011;7711;46.634;14.318;2023-08-17T05:57:14;13.00;;;10.27;;
15216;SDS011;7711;46.634;14.318;2023-08-17T05:59:41;11.02;;;10.00;;
15216;SDS011;7711;46.634;14.318;2023-08-17T06:02:08;14.88;;;11.15;;
15216;SDS011;7711;46.634;14.318;2023-08-17T06:04:35;12.25;;;10.70;;
15216;SDS011;7711;46.634;14.318;2023-08-17T06:07:02;13.45;;;12.10;;
15216;SDS011;7711;46.634;14.318;2023-08-17T06:09:29;12.57;;;10.65;;
15216;SDS011;7711;46.634;14.318;2023-08-17T06:11:56;14.27;;;10.93;;
15216;SDS011;7711;46.634;14.318;2023-08-17T06:14:24;16.25;;;10.30;;
15216;SDS011;7711;46.634;14.318;2023-08-17T06:16:51;11.25;;;10.23;;
15216;SDS011;7711;46.634;14.318;2023-08-17T06:19:18;12.25;;;10.93;;
15216;SDS011;7711;46.634;14.318;2023-08-17T06:21:45;12.85;;;10.10;;
15216;SDS011;7711;46.634;14.318;2023-08-17T06:24:12;10.98;;;9.50;;
15216;SDS011;7711;46.634;14.318;2023-08-17T06:26:39;12.27;;;11.05;;
15216;SDS011;7711;46.634;14.318;2023-08-17T06:29:06;11.13;;;10.02;;
15216;SDS011;7711;46.634;14.318;2023-08-17T06:31:35;13.88;;;10.07;;
15216;SDS011;7711;46.634;14.318;2023-08-17T06:34:02;13.70;;;10.07;;
15216;SDS011;7711;46.634;14.318;2023-08-17T06:36:30;10.75;;;9.63;;
15216;SDS011;7711;46.634;14.318;2023-08-17T06:38:58;24.58;;;11.88;;
15216;SDS011;7711;46.634;14.318;2023-08-17T06:41:24;16.33;;;11.13;;
15216;SDS011;7711;46.634;14.318;2023-08-17T06:43:52;13.77;;;9.88;;
15216;SDS011;7711;46.634;14.318;2023-08-17T06:46:19;10.88;;;9.77;;
15216;SDS011;7711;46.634;14.318;2023-08-17T06:48:47;11.32;;;10.00;;
15216;SDS011;7711;46.634;14.318;2023-08-17T06:51:14;11.15;;;10.05;;
15216;SDS011;7711;46.634;14.318;2023-08-17T06:53:41;10.55;;;9.50;;
15216;SDS011;7711;46.634;14.318;2023-08-17T06:56:09;9.60;;;8.63;;
15216;SDS011;7711;46.634;14.318;2023-08-17T06:58:36;11.55;;;9.75;;
15216;SDS011;7711;46.634;14.318;2023-08-17T07:01:03;10.60;;;9.63;;
15216;SDS011;7711;46.634;14.318;2023-08-17T07:03:30;11.73;;;9.07;;
15216;SDS011;7711;46.634;14.318;2023-08-17T07:05:58;10.15;;;9.10;;
15216;SDS011;7711;46.634;14.318;2023-08-17T07:08:25;14.02;;;9.35;;
15216;SDS011;7711;46.634;14.318;2023-08-17T07:10:53;9.85;;;8.88;;
15216;SDS011;7711;46.634;14.318;2023-08-17T07:13:20;9.93;;;8.80;;
15216;SDS011;7711;46.634;14.318;2023-08-17T07:15:47;10.15;;;9.13;;
15216;SDS011;7711;46.634;14.318;2023-08-17T07:18:14;13.63;;;8.73;;
15216;SDS011;7711;46.634;14.318;2023-08-17T07:20:41;11.18;;;9.10;;
15216;SDS011;7711;46.634;14.318;2023-08-17T07:23:09;17.67;;;8.80;;
15216;SDS011;7711;46.634;14.318;2023-08-17T07:25:36;9.98;;;8.98;;
15216;SDS011;7711;46.634;14.318;2023-08-17T07:28:03;9.80;;;8.75;;
15216;SDS011;7711;46.634;14.318;2023-08-17T07:30:31;9.45;;;8.63;;
15216;SDS011;7711;46.634;14.318;2023-08-17T07:32:58;10.40;;;9.23;;
15216;SDS011;7711;46.634;14.318;2023-08-17T07:35:25;10.20;;;9.18;;
15216;SDS011;7711;46.634;14.318;2023-08-17T07:37:52;10.55;;;9.45;;
15216;SDS011;7711;46.634;14.318;2023-08-17T07:40:20;9.98;;;9.07;;
15216;SDS011;7711;46.634;14.318;2023-08-17T07:42:48;11.13;;;9.40;;
15216;SDS011;7711;46.634;14.318;2023-08-17T07:45:15;10.10;;;9.20;;
15216;SDS011;7711;46.634;14.318;2023-08-17T07:47:43;10.85;;;9.57;;
15216;SDS011;7711;46.634;14.318;2023-08-17T07:50:11;10.45;;;9.48;;
15216;SDS011;7711;46.634;14.318;2023-08-17T07:52:39;10.75;;;9.32;;
15216;SDS011;7711;46.634;14.318;2023-08-17T07:55:07;10.75;;;8.88;;
15216;SDS011;7711;46.634;14.318;2023-08-17T07:57:36;9.82;;;8.93;;
15216;SDS011;7711;46.634;14.318;2023-08-17T08:00:04;11.25;;;10.10;;
15216;SDS011;7711;46.634;14.318;2023-08-17T08:02:32;11.25;;;9.60;;
15216;SDS011;7711;46.634;14.318;2023-08-17T08:04:59;10.43;;;9.27;;
15216;SDS011;7711;46.634;14.318;2023-08-17T08:07:27;10.27;;;9.30;;
15216;SDS011;7711;46.634;14.318;2023-08-17T08:09:54;10.73;;;9.70;;
15216;SDS011;7711;46.634;14.318;2023-08-17T08:12:22;11.30;;;10.20;;
15216;SDS011;7711;46.634;14.318;2023-08-17T08:14:51;10.98;;;9.68;;
15216;SDS011;7711;46.634;14.318;2023-08-17T08:17:18;11.70;;;9.50;;
15216;SDS011;7711;46.634;14.318;2023-08-17T08:19:46;11.73;;;9.80;;
15216;SDS011;7711;46.634;14.318;2023-08-17T08:22:13;14.68;;;9.52;;
15216;SDS011;7711;46.634;14.318;2023-08-17T08:24:41;9.82;;;8.93;;
15216;SDS011;7711;46.634;14.318;2023-08-17T08:27:08;11.48;;;9.82;;
15216;SDS011;7711;46.634;14.318;2023-08-17T08:29:36;11.45;;;10.10;;
15216;SDS011;7711;46.634;14.318;2023-08-17T08:32:05;12.27;;;9.88;;
15216;SDS011;7711;46.634;14.318;2023-08-17T08:34:32;11.73;;;10.38;;
15216;SDS011;7711;46.634;14.318;2023-08-17T08:37:00;11.70;;;10.60;;
15216;SDS011;7711;46.634;14.318;2023-08-17T08:39:28;11.07;;;9.77;;
15216;SDS011;7711;46.634;14.318;2023-08-17T08:41:55;10.55;;;9.55;;
15216;SDS011;7711;46.634;14.318;2023-08-17T08:44:23;12.00;;;9.40;;
15216;SDS011;7711;46.634;14.318;2023-08-17T08:46:51;11.25;;;10.07;;
15216;SDS011;7711;46.634;14.318;2023-08-17T08:49:24;11.10;;;9.80;;
15216;SDS011;7711;46.634;14.318;2023-08-17T08:51:53;10.77;;;9.70;;
15216;SDS011;7711;46.634;14.318;2023-08-17T08:54:24;10.65;;;9.60;;
15216;SDS011;7711;46.634;14.318;2023-08-17T08:56:57;11.45;;;10.27;;
15216;SDS011;7711;46.634;14.318;2023-08-17T08:59:28;12.90;;;10.95;;
15216;SDS011;7711;46.634;14.318;2023-08-17T09:01:55;12.60;;;10.48;;
15216;SDS011;7711;46.634;14.318;2023-08-17T09:04:27;11.55;;;10.32;;
15216;SDS011;7711;46.634;14.318;2023-08-17T09:06:55;14.77;;;10.90;;
15216;SDS011;7711;46.634;14.318;2023-08-17T09:09:24;10.93;;;9.90;;
15216;SDS011;7711;46.634;14.318;2023-08-17T09:11:52;10.88;;;9.93;;
15216;SDS011;7711;46.634;14.318;2023-08-17T09:14:21;11.07;;;10.18;;
15216;SDS011;7711;46.634;14.318;2023-08-17T09:16:49;12.13;;;11.02;;
15216;SDS011;7711;46.634;14.318;2023-08-17T09:19:16;13.32;;;11.52;;
15216;SDS011;7711;46.634;14.318;2023-08-17T09:21:47;11.85;;;10.70;;
15216;SDS011;7711;46.634;14.318;2023-08-17T09:24:14;11.70;;;10.60;;
15216;SDS011;7711;46.634;14.318;2023-08-17T09:26:41;11.73;;;10.45;;
15216;SDS011;7711;46.634;14.318;2023-08-17T09:29:19;12.52;;;11.23;;
15216;SDS011;7711;46.634;14.318;2023-08-17T09:31:48;12.75;;;11.55;;
15216;SDS011;7711;46.634;14.318;2023-08-17T09:34:15;11.88;;;10.70;;
15216;SDS011;7711;46.634;14.318;2023-08-17T09:36:46;11.80;;;10.80;;
15216;SDS011;7711;46.634;14.318;2023-08-17T09:39:15;12.90;;;11.35;;
15216;SDS011;7711;46.634;14.318;2023-08-17T09:41:43;12.50;;;11.40;;
15216;SDS011;7711;46.634;14.318;2023-08-17T09:44:10;14.20;;;10.95;;
15216;SDS011;7711;46.634;14.318;2023-08-17T09:46:39;12.07;;;10.77;;
15216;SDS011;7711;46.634;14.318;2023-08-17T09:49:09;11.68;;;10.45;;
15216;SDS011;7711;46.634;14.318;2023-08-17T09:51:37;12.27;;;10.88;;
15216;SDS011;7711;46.634;14.318;2023-08-17T09:54:06;11.77;;;10.65;;
15216;SDS011;7711;46.634;14.318;2023-08-17T09:56:34;11.30;;;10.18;;
15216;SDS011;7711;46.634;14.318;2023-08-17T09:59:02;11.50;;;10.55;;
15216;SDS011;7711;46.634;14.318;2023-08-17T10:01:30;12.88;;;11.38;;
15216;SDS011;7711;46.634;14.318;2023-08-17T10:03:57;11.73;;;10.45;;
15216;SDS011;7711;46.634;14.318;2023-08-17T10:06:26;12.00;;;10.77;;
15216;SDS011;7711;46.634;14.318;2023-08-17T10:08:57;11.25;;;10.15;;
15216;SDS011;7711;46.634;14.318;2023-08-17T10:11:28;11.80;;;10.60;;
15216;SDS011;7711;46.634;14.318;2023-08-17T10:13:59;11.60;;;10.50;;
15216;SDS011;7711;46.634;14.318;2023-08-17T10:16:35;11.25;;;10.15;;
15216;SDS011;7711;46.634;14.318;2023-08-17T10:19:11;11.23;;;10.23;;
15216;SDS011;7711;46.634;14.318;2023-08-17T10:21:43;11.77;;;10.52;;
15216;SDS011;7711;46.634;14.318;2023-08-17T10:24:13;10.07;;;9.18;;
15216;SDS011;7711;46.634;14.318;2023-08-17T10:26:42;10.63;;;9.65;;
15216;SDS011;7711;46.634;14.318;2023-08-17T10:29:11;10.85;;;9.85;;
15216;SDS011;7711;46.634;14.318;2023-08-17T10:31:38;11.93;;;10.82;;
15216;SDS011;7711;46.634;14.318;2023-08-17T10:34:10;11.52;;;10.32;;
15216;SDS011;7711;46.634;14.318;2023-08-17T10:36:38;11.65;;;10.20;;
15216;SDS011;7711;46.634;14.318;2023-08-17T10:41:50;11.57;;;10.48;;
15216;SDS011;7711;46.634;14.318;2023-08-17T10:44:18;11.05;;;10.02;;
15216;SDS011;7711;46.634;14.318;2023-08-17T10:47:18;10.60;;;9.60;;
15216;SDS011;7711;46.634;14.318;2023-08-17T10:49:47;10.55;;;9.52;;
15216;SDS011;7711;46.634;14.318;2023-08-17T10:52:17;11.05;;;9.85;;
15216;SDS011;7711;46.634;14.318;2023-08-17T10:54:56;10.65;;;9.63;;
15216;SDS011;7711;46.634;14.318;2023-08-17T10:57:34;10.60;;;9.70;;
15216;SDS011;7711;46.634;14.318;2023-08-17T11:00:13;10.35;;;9.45;;
15216;SDS011;7711;46.634;14.318;2023-08-17T11:02:45;22.80;;;10.82;;
15216;SDS011;7711;46.634;14.318;2023-08-17T11:08:01;10.25;;;9.25;;
15216;SDS011;7711;46.634;14.318;2023-08-17T11:10:29;10.10;;;9.10;;
15216;SDS011;7711;46.634;14.318;2023-08-17T11:12:58;11.27;;;9.25;;
15216;SDS011;7711;46.634;14.318;2023-08-17T11:15:34;8.88;;;8.07;;
15216;SDS011;7711;46.634;14.318;2023-08-17T11:18:04;10.25;;;8.93;;
15216;SDS011;7711;46.634;14.318;2023-08-17T11:20:33;9.75;;;8.95;;
15216;SDS011;7711;46.634;14.318;2023-08-17T11:23:01;9.20;;;8.43;;
15216;SDS011;7711;46.634;14.318;2023-08-17T11:25:31;10.07;;;9.18;;
15216;SDS011;7711;46.634;14.318;2023-08-17T11:28:01;11.50;;;8.77;;
15216;SDS011;7711;46.634;14.318;2023-08-17T11:30:28;9.68;;;7.85;;
15216;SDS011;7711;46.634;14.318;2023-08-17T11:32:57;8.35;;;7.55;;
15216;SDS011;7711;46.634;14.318;2023-08-17T11:35:24;9.32;;;8.05;;
15216;SDS011;7711;46.634;14.318;2023-08-17T11:37:52;8.45;;;7.60;;
15216;SDS011;7711;46.634;14.318;2023-08-17T11:40:19;7.47;;;6.78;;
15216;SDS011;7711;46.634;14.318;2023-08-17T11:42:47;8.38;;;7.47;;
15216;SDS011;7711;46.634;14.318;2023-08-17T11:45:17;7.35;;;6.63;;
15216;SDS011;7711;46.634;14.318;2023-08-17T11:47:46;8.43;;;7.20;;
15216;SDS011;7711;46.634;14.318;2023-08-17T11:50:14;8.10;;;7.35;;
15216;SDS011;7711;46.634;14.318;2023-08-17T11:52:41;10.15;;;7.88;;
15216;SDS011;7711;46.634;14.318;2023-08-17T11:55:09;9.10;;;8.23;;
15216;SDS011;7711;46.634;14.318;2023-08-17T11:57:37;10.70;;;8.65;;
15216;SDS011;7711;46.634;14.318;2023-08-17T12:00:05;8.32;;;7.63;;
15216;SDS011;7711;46.634;14.318;2023-08-17T12:02:36;8.50;;;7.72;;
15216;SDS011;7711;46.634;14.318;2023-08-17T12:05:07;9.13;;;8.20;;
15216;SDS011;7711;46.634;14.318;2023-08-17T12:07:35;9.20;;;7.82;;
15216;SDS011;7711;46.634;14.318;2023-08-17T12:10:03;8.30;;;7.60;;
15216;SDS011;7711;46.634;14.318;2023-08-17T12:12:35;9.52;;;7.25;;
15216;SDS011;7711;46.634;14.318;2023-08-17T12:15:04;7.75;;;7.10;;
15216;SDS011;7711;46.634;14.318;2023-08-17T12:17:32;7.30;;;6.70;;
15216;SDS011;7711;46.634;14.318;2023-08-17T12:20:03;7.45;;;6.85;;
15216;SDS011;7711;46.634;14.318;2023-08-17T12:22:31;7.50;;;6.88;;
15216;SDS011;7711;46.634;14.318;2023-08-17T12:24:58;7.60;;;6.85;;
15216;SDS011;7711;46.634;14.318;2023-08-17T12:27:25;7.25;;;6.55;;
15216;SDS011;7711;46.634;14.318;2023-08-17T12:29:53;7.50;;;6.82;;
15216;SDS011;7711;46.634;14.318;2023-08-17T12:32:21;7.55;;;6.85;;
15216;SDS011;7711;46.634;14.318;2023-08-17T12:34:48;7.90;;;7.13;;
15216;SDS011;7711;46.634;14.318;2023-08-17T12:37:20;8.30;;;7.57;;
15216;SDS011;7711;46.634;14.318;2023-08-17T12:39:48;8.50;;;7.80;;
15216;SDS011;7711;46.634;14.318;2023-08-17T12:42:15;7.57;;;6.97;;
15216;SDS011;7711;46.634;14.318;2023-08-17T12:44:43;7.60;;;6.90;;
15216;SDS011;7711;46.634;14.318;2023-08-17T12:47:11;7.50;;;6.80;;
15216;SDS011;7711;46.634;14.318;2023-08-17T12:49:38;7.55;;;6.78;;
15216;SDS011;7711;46.634;14.318;2023-08-17T12:52:07;7.95;;;7.18;;
15216;SDS011;7711;46.634;14.318;2023-08-17T12:54:36;7.40;;;6.70;;
15216;SDS011;7711;46.634;14.318;2023-08-17T12:57:03;7.97;;;6.82;;
15216;SDS011;7711;46.634;14.318;2023-08-17T12:59:31;7.82;;;7.13;;
15216;SDS011;7711;46.634;14.318;2023-08-17T13:01:59;7.68;;;7.07;;
15216;SDS011;7711;46.634;14.318;2023-08-17T13:04:26;7.95;;;7.15;;
15216;SDS011;7711;46.634;14.318;2023-08-17T13:06:54;7.75;;;7.05;;
15216;SDS011;7711;46.634;14.318;2023-08-17T13:09:21;7.68;;;6.80;;
15216;SDS011;7711;46.634;14.318;2023-08-17T13:11:51;7.78;;;6.80;;
15216;SDS011;7711;46.634;14.318;2023-08-17T13:14:18;6.78;;;6.28;;
15216;SDS011;7711;46.634;14.318;2023-08-17T13:16:45;7.68;;;6.45;;
15216;SDS011;7711;46.634;14.318;2023-08-17T13:19:13;6.95;;;6.43;;
15216;SDS011;7711;46.634;14.318;2023-08-17T13:21:40;7.25;;;6.65;;
15216;SDS011;7711;46.634;14.318;2023-08-17T13:24:08;6.43;;;5.93;;
15216;SDS011;7711;46.634;14.318;2023-08-17T13:26:35;6.70;;;6.00;;
15216;SDS011;7711;46.634;14.318;2023-08-17T13:29:04;6.30;;;5.80;;
15216;SDS011;7711;46.634;14.318;2023-08-17T13:31:31;7.43;;;6.78;;
15216;SDS011;7711;46.634;14.318;2023-08-17T13:33:59;6.40;;;5.80;;
15216;SDS011;7711;46.634;14.318;2023-08-17T13:36:26;5.93;;;5.53;;
15216;SDS011;7711;46.634;14.318;2023-08-17T13:38:54;5.97;;;5.43;;
15216;SDS011;7711;46.634;14.318;2023-08-17T13:41:21;6.03;;;5.45;;
15216;SDS011;7711;46.634;14.318;2023-08-17T13:43:50;6.25;;;5.65;;
15216;SDS011;7711;46.634;14.318;2023-08-17T13:46:19;6.13;;;5.03;;
15216;SDS011;7711;46.634;14.318;2023-08-17T13:48:47;5.82;;;5.32;;
15216;SDS011;7711;46.634;14.318;2023-08-17T13:51:14;8.93;;;4.95;;
15216;SDS011;7711;46.634;14.318;2023-08-17T13:53:42;4.97;;;4.47;;
15216;SDS011;7711;46.634;14.318;2023-08-17T13:56:09;4.75;;;4.28;;
15216;SDS011;7711;46.634;14.318;2023-08-17T13:58:36;5.32;;;4.93;;
15216;SDS011;7711;46.634;14.318;2023-08-17T14:01:04;5.30;;;4.80;;
15216;SDS011;7711;46.634;14.318;2023-08-17T14:03:32;5.20;;;4.70;;
15216;SDS011;7711;46.634;14.318;2023-08-17T14:05:59;5.35;;;4.95;;
15216;SDS011;7711;46.634;14.318;2023-08-17T14:08:27;5.40;;;4.90;;
15216;SDS011;7711;46.634;14.318;2023-08-17T14:10:54;5.68;;;4.70;;
15216;SDS011;7711;46.634;14.318;2023-08-17T14:13:22;7.22;;;4.88;;
15216;SDS011;7711;46.634;14.318;2023-08-17T14:15:49;5.40;;;5.00;;
15216;SDS011;7711;46.634;14.318;2023-08-17T14:18:16;5.88;;;5.00;;
15216;SDS011;7711;46.634;14.318;2023-08-17T14:20:45;7.60;;;5.00;;
15216;SDS011;7711;46.634;14.318;2023-08-17T14:23:12;5.13;;;4.72;;
15216;SDS011;7711;46.634;14.318;2023-08-17T14:25:40;4.85;;;4.45;;
15216;SDS011;7711;46.634;14.318;2023-08-17T14:28:08;5.40;;;4.70;;
15216;SDS011;7711;46.634;14.318;2023-08-17T14:30:35;4.78;;;4.43;;
15216;SDS011;7711;46.634;14.318;2023-08-17T14:33:03;6.32;;;4.63;;
15216;SDS011;7711;46.634;14.318;2023-08-17T14:35:32;5.70;;;5.10;;
15216;SDS011;7711;46.634;14.318;2023-08-17T14:38:02;5.47;;;5.05;;
15216;SDS011;7711;46.634;14.318;2023-08-17T14:40:30;5.50;;;5.10;;